Date,TemperatureHighF,TemperatureAvgF,TemperatureLowF,DewpointHighF,DewpointAvgF,DewpointLowF,HumidityHigh,HumidityAvg,HumidityLow,PressureMaxIn,PressureMinIn,WindSpeedMaxMPH,WindSpeedAvgMPH,GustSpeedMaxMPH,PrecipitationSumIn
2013-4-1,36.0,29.7,26.0,36.0,29.7,26.0,100,100,96,0.00,40.00,30,9,71,0.00
2013-4-2,37.0,29.4,26.0,37.0,29.4,26.0,100,100,100,0.00,40.00,18,9,33,0.00
2013-4-3,49.0,35.5,29.0,45.0,32.5,21.0,100,90,54,0.00,40.00,16,6,22,0.00
2013-4-4,44.0,39.2,35.0,40.0,32.5,29.0,100,78,56,0.00,40.00,26,14,46,0.00
2013-4-5,39.0,32.4,27.0,38.0,31.8,27.0,100,98,74,0.00,40.00,34,15,50,0.00
2013-4-6,36.0,31.0,27.0,36.0,31.0,27.0,100,100,100,0.00,40.00,11,6,22,0.00
2013-4-7,36.0,31.1,26.0,36.0,28.6,13.0,100,92,38,0.00,40.00,17,8,35,0.00
2013-4-8,34.0,26.1,14.0,32.0,25.0,12.0,100,96,55,0.00,40.00,20,10,38,0.00
2013-4-9,20.0,9.9,5.0,20.0,9.9,5.0,100,100,100,0.00,40.00,23,17,41,0.00
2013-4-10,34.0,20.5,10.0,34.0,20.5,10.0,100,100,100,0.00,40.00,14,9,32,0.00
2013-4-11,40.0,29.5,26.0,38.0,29.3,26.0,100,100,80,0.00,40.00,17,6,35,0.00
2013-4-12,42.0,29.9,23.0,37.0,24.9,4.0,100,84,30,0.00,40.00,15,6,24,0.00
2013-4-13,34.0,28.3,18.0,32.0,24.6,8.0,100,88,38,0.00,40.00,24,12,38,0.00
2013-4-14,25.0,16.2,9.0,22.0,8.8,-9.0,100,78,27,0.00,40.00,20,8,33,0.00
2013-4-15,32.0,20.3,15.0,30.0,20.3,15.0,100,100,92,0.00,40.00,20,7,29,0.00
2013-4-16,24.0,17.4,11.0,24.0,17.4,10.0,100,100,100,0.00,40.00,13,7,22,0.00
2013-4-17,21.0,12.1,7.0,21.0,12.1,7.0,100,100,96,0.00,40.00,16,9,32,0.00
2013-4-18,28.0,16.4,8.0,14.0,6.4,-5.0,100,67,35,0.00,40.00,15,10,37,0.00
2013-4-19,35.0,25.5,19.0,35.0,24.3,13.0,100,96,73,0.00,40.00,16,8,25,0.00
2013-4-20,35.0,27.0,24.0,35.0,27.0,24.0,100,100,100,0.00,40.00,19,7,27,0.00
2013-4-21,37.0,30.3,25.0,36.0,28.1,23.0,100,92,73,0.00,40.00,12,6,23,0.00
2013-4-22,32.0,26.2,16.0,32.0,25.6,16.0,100,98,66,0.00,40.00,13,7,28,0.00
2013-4-23,33.0,20.6,10.0,18.0,6.3,-35.0,100,66,6,0.00,40.00,13,6,30,0.00
2013-4-24,40.0,28.8,18.0,13.0,-4.4,-18.0,53,25,8,0.00,40.00,9,5,17,0.00
2013-4-25,45.0,33.1,27.0,17.0,4.9,-34.0,56,31,4,0.00,40.00,18,9,26,0.00
2013-4-26,48.0,37.7,30.0,15.0,6.4,-14.0,41,28,10,0.00,40.00,13,6,18,0.00
2013-4-27,48.0,42.0,35.0,25.0,13.2,-4.0,65,32,16,0.00,40.00,14,7,24,0.00
2013-4-28,49.0,45.7,42.0,25.0,20.0,16.0,50,36,28,0.00,40.00,16,9,29,0.00
2013-4-29,48.0,41.7,35.0,36.0,25.8,14.0,95,54,34,0.00,40.00,13,9,28,0.00
2013-4-30,41.0,32.5,20.0,39.0,22.1,-3.0,100,70,28,0.00,40.00,17,9,30,0.00